createdAt,value
2022-10-04T00:00:11.822Z,100135.91
2022-10-04T00:02:45.944Z,100129.84
2022-10-04T00:05:16.625Z,100123.69
2022-10-04T00:07:51.211Z,100122.47
2022-10-04T00:10:29.803Z,100120.38
2022-10-04T00:13:06.955Z,100124.56
2022-10-04T00:15:39.191Z,100137.53
2022-10-04T00:18:28.445Z,100141.41
2022-10-04T00:20:58.027Z,100139.31
2022-10-04T00:23:25.476Z,100126.28
2022-10-04T00:25:55.264Z,100136.28
2022-10-04T00:28:25.781Z,100132.78
2022-10-04T00:31:14.664Z,100127.81
2022-10-04T00:34:03.408Z,100125.31
2022-10-04T00:36:36.573Z,100126.09
2022-10-04T00:39:06.614Z,100124.59
2022-10-04T00:41:49.616Z,100125.59
2022-10-04T00:44:33.694Z,100122.78
2022-10-04T00:47:04.057Z,100125.59
2022-10-04T00:49:39.347Z,100125.06
2022-10-04T00:52:23.247Z,100119.38
2022-10-04T00:54:53.594Z,100112.63
2022-10-04T00:57:24.732Z,100110.59
2022-10-04T00:59:54.298Z,100112.66
2022-10-04T01:02:45.777Z,100115.63
2022-10-04T01:05:30.071Z,100110.84
2022-10-04T01:08:05.050Z,100111.13
2022-10-04T01:10:36.759Z,100114.13
2022-10-04T01:13:20.392Z,100108.03
2022-10-04T01:15:55.277Z,100116.62
2022-10-04T01:18:22.855Z,100114.03
2022-10-04T01:20:52.816Z,100107.56
2022-10-04T01:23:45.695Z,100105.50
2022-10-04T01:26:32.314Z,100099.72
2022-10-04T01:29:10.225Z,100101.78
2022-10-04T01:31:40.870Z,100102.13
2022-10-04T01:34:09.312Z,100103.12
2022-10-04T01:36:37.096Z,100104.75
2022-10-04T01:39:05.360Z,100107.94
2022-10-04T01:41:53.158Z,100106.06
2022-10-04T01:44:48.878Z,100099.06
2022-10-04T01:47:22.958Z,100103.56
2022-10-04T01:49:51.937Z,100107.69
2022-10-04T01:52:24.472Z,100107.69
2022-10-04T01:55:00.346Z,100120.81
2022-10-04T01:57:34.319Z,100111.50
2022-10-04T02:00:05.043Z,100119.41
2022-10-04T02:02:54.868Z,100114.03
2022-10-04T02:05:50.513Z,100119.75
2022-10-04T02:08:24.305Z,100112.09
2022-10-04T02:10:52.478Z,100112.72
2022-10-04T02:13:21.534Z,100112.66
2022-10-04T02:15:49.774Z,100124.44
2022-10-04T02:18:20.611Z,100115.47
2022-10-04T02:20:49.643Z,100112.00
2022-10-04T02:23:18.849Z,100117.53
2022-10-04T02:25:46.399Z,100112.69
2022-10-04T02:28:15.491Z,100119.19
2022-10-04T02:31:06.451Z,100121.78
2022-10-04T02:33:34.496Z,100121.97
2022-10-04T02:36:02.159Z,100123.13
2022-10-04T02:38:35.172Z,100120.16
2022-10-04T02:41:12.631Z,100120.88
2022-10-04T02:43:45.382Z,100124.09
2022-10-04T02:46:36.518Z,100127.34
2022-10-04T02:49:18.221Z,100122.28
2022-10-04T02:51:51.500Z,100122.88
2022-10-04T02:54:27.958Z,100122.37
2022-10-04T02:56:58.815Z,100128.72
2022-10-04T02:59:35.474Z,100118.91
2022-10-04T03:02:29.445Z,100111.19
2022-10-04T03:05:05.989Z,100112.00
2022-10-04T03:07:35.181Z,100118.16
2022-10-04T03:10:03.702Z,100118.00
2022-10-04T03:12:31.799Z,100116.22
2022-10-04T03:14:59.749Z,100123.03
2022-10-04T03:17:27.169Z,100119.38
2022-10-04T03:19:54.499Z,100116.69
2022-10-04T03:22:22.980Z,100115.47
2022-10-04T03:24:53.555Z,100108.94
2022-10-04T03:27:25.047Z,100104.41
2022-10-04T03:29:58.899Z,100117.34
2022-10-04T03:32:30.701Z,100115.63
2022-10-04T03:35:00.605Z,100127.63
2022-10-04T03:37:29.822Z,100125.72
2022-10-04T03:39:57.784Z,100127.47
2022-10-04T03:42:28.064Z,100124.78
2022-10-04T03:45:02.937Z,100126.91
2022-10-04T03:47:33.786Z,100126.97
2022-10-04T03:50:13.791Z,100125.84
2022-10-04T03:52:46.445Z,100125.72
2022-10-04T03:55:15.319Z,100125.66
2022-10-04T03:57:43.202Z,100120.53
2022-10-04T04:00:15.370Z,100122.94
2022-10-04T04:02:48.076Z,100122.09
2022-10-04T04:05:26.445Z,100124.75
2022-10-04T04:08:00.794Z,100123.72
2022-10-04T04:10:30.363Z,100116.84
2022-10-04T04:13:35.425Z,100125.31
2022-10-04T04:16:02.995Z,100121.72
2022-10-04T04:18:33.728Z,100117.66
2022-10-04T04:21:03.058Z,100123.34
2022-10-04T04:23:41.944Z,100125.25
2022-10-04T04:26:44.089Z,100133.91
2022-10-04T04:29:28.415Z,100141.22
2022-10-04T04:32:02.485Z,100147.50
2022-10-04T04:34:35.606Z,100141.28
2022-10-04T04:37:05.084Z,100146.94
2022-10-04T04:39:40.905Z,100154.19
2022-10-04T04:42:10.905Z,100159.16
2022-10-04T04:44:46.063Z,100164.66
2022-10-04T04:47:20.390Z,100153.56
2022-10-04T04:49:47.950Z,100155.94
2022-10-04T04:52:16.878Z,100149.94
2022-10-04T04:54:47.119Z,100150.94
2022-10-04T04:57:16.994Z,100155.22
2022-10-04T04:59:46.271Z,100161.53
2022-10-04T05:02:37.596Z,100163.88
2022-10-04T05:05:24.795Z,100169.47
2022-10-04T05:08:10.833Z,100171.22
2022-10-04T05:10:41.020Z,100171.66
2022-10-04T05:13:10.015Z,100176.34
2022-10-04T05:15:40.235Z,100182.97
2022-10-04T05:18:34.233Z,100182.59
2022-10-04T05:21:13.572Z,100188.09
2022-10-04T05:23:40.967Z,100189.81
2022-10-04T05:26:13.170Z,100190.13
2022-10-04T05:28:40.906Z,100189.56
2022-10-04T05:31:17.190Z,100191.22
2022-10-04T05:34:02.850Z,100192.69
2022-10-04T05:36:48.891Z,100195.31
2022-10-04T05:39:22.274Z,100203.47
2022-10-04T05:42:23.530Z,100201.66
2022-10-04T05:44:53.411Z,100209.06
2022-10-04T05:47:24.141Z,100214.00
2022-10-04T05:49:54.422Z,100216.03
2022-10-04T05:52:30.610Z,100212.97
2022-10-04T05:55:16.494Z,100215.97
2022-10-04T05:58:21.381Z,100204.28
2022-10-04T06:01:11.003Z,100211.66
2022-10-04T06:03:57.090Z,100215.84
2022-10-04T06:06:57.351Z,100211.56
2022-10-04T06:09:44.843Z,100220.94
2022-10-04T06:12:44.424Z,100229.88
2022-10-04T06:15:41.404Z,100228.31
2022-10-04T06:18:30.535Z,100235.69
2022-10-04T06:21:01.140Z,100231.00
2022-10-04T06:23:30.373Z,100237.75
2022-10-04T06:26:05.243Z,100238.16
2022-10-04T06:28:46.939Z,100240.84
2022-10-04T06:31:33.284Z,100243.19
2022-10-04T06:34:03.295Z,100243.44
2022-10-04T06:36:37.122Z,100247.41
2022-10-04T06:39:23.358Z,100243.41
2022-10-04T06:42:16.903Z,100248.09
2022-10-04T06:45:00.725Z,100250.63
2022-10-04T06:47:43.883Z,100256.12
2022-10-04T06:50:28.958Z,100259.56
2022-10-04T06:53:15.284Z,100261.13
2022-10-04T06:55:54.478Z,100257.41
2022-10-04T06:58:38.126Z,100260.44
2022-10-04T07:01:24.673Z,100262.94
2022-10-04T07:03:57.526Z,100260.34
2022-10-04T07:06:29.396Z,100257.31
2022-10-04T07:09:02.460Z,100262.41
2022-10-04T07:11:36.860Z,100272.94
2022-10-04T07:14:13.741Z,100273.19
2022-10-04T07:16:48.436Z,100266.63
2022-10-04T07:19:19.104Z,100279.38
2022-10-04T07:22:05.679Z,100276.84
2022-10-04T07:24:42.020Z,100275.00
2022-10-04T07:27:14.329Z,100276.44
2022-10-04T07:29:45.760Z,100279.25
2022-10-04T07:32:17.911Z,100278.66
2022-10-04T07:35:08.591Z,100279.19
2022-10-04T07:37:47.363Z,100277.00
2022-10-04T07:41:03.576Z,100281.66
2022-10-04T07:43:58.431Z,100280.53
2022-10-04T07:46:47.634Z,100279.19
2022-10-04T07:49:17.307Z,100277.28
2022-10-04T07:52:15.399Z,100279.22
2022-10-04T07:55:16.707Z,100278.16
2022-10-04T07:57:54.616Z,100291.47
2022-10-04T08:00:32.401Z,100287.59
2022-10-04T08:03:19.826Z,100282.78
2022-10-04T08:05:59.393Z,100287.59
2022-10-04T08:08:58.170Z,100287.13
2022-10-04T08:11:43.367Z,100298.37
2022-10-04T08:14:20.975Z,100292.13
2022-10-04T08:17:05.834Z,100294.03
2022-10-04T08:19:38.760Z,100302.53
2022-10-04T08:22:19.889Z,100296.47
2022-10-04T08:25:03.744Z,100307.12
2022-10-04T08:27:35.550Z,100311.28
2022-10-04T08:30:11.150Z,100322.22
2022-10-04T08:32:47.601Z,100319.19
2022-10-04T08:35:36.117Z,100325.81
2022-10-04T08:38:42.374Z,100318.41
2022-10-04T08:41:47.691Z,100322.25
2022-10-04T08:44:43.075Z,100323.91
2022-10-04T08:47:39.098Z,100324.19
2022-10-04T08:50:32.842Z,100317.88
2022-10-04T08:53:43.644Z,100313.47
2022-10-04T08:56:35.762Z,100323.06
2022-10-04T08:59:17.104Z,100324.94
2022-10-04T09:02:22.129Z,100316.69
2022-10-04T09:04:58.487Z,100324.16
2022-10-04T09:07:57.984Z,100330.41
2022-10-04T09:10:37.610Z,100333.97
2022-10-04T09:13:30.979Z,100326.59
2022-10-04T09:16:18.610Z,100330.72
2022-10-04T09:19:11.751Z,100332.09
2022-10-04T09:21:46.216Z,100335.56
2022-10-04T09:24:34.746Z,100327.75
2022-10-04T09:27:26.825Z,100315.94
2022-10-04T09:30:15.583Z,100311.25
2022-10-04T09:32:59.480Z,100319.41
2022-10-04T09:35:41.160Z,100327.56
2022-10-04T09:38:42.690Z,100323.00
2022-10-04T09:42:04.659Z,100324.25
2022-10-04T09:44:54.693Z,100323.19
2022-10-04T09:47:38.434Z,100318.50
2022-10-04T09:50:26.706Z,100324.87
2022-10-04T09:53:28.213Z,100335.66
2022-10-04T09:56:14.026Z,100343.34
2022-10-04T09:58:51.598Z,100342.53
2022-10-04T10:01:33.615Z,100339.41
2022-10-04T10:04:13.448Z,100344.59
2022-10-04T10:07:06.839Z,100352.47
2022-10-04T10:10:10.362Z,100345.56
2022-10-04T10:13:22.708Z,100351.00
2022-10-04T10:16:02.899Z,100345.25
2022-10-04T10:18:48.503Z,100350.44
2022-10-04T10:21:42.583Z,100351.63
2022-10-04T10:24:48.050Z,100355.84
2022-10-04T10:27:30.035Z,100350.38
2022-10-04T10:29:57.271Z,100358.13
2022-10-04T10:32:46.492Z,100366.59
2022-10-04T10:35:25.455Z,100360.31
2022-10-04T10:38:14.920Z,100366.78
2022-10-04T10:41:07.173Z,100368.72
2022-10-04T10:43:57.503Z,100371.53
2022-10-04T10:46:52.771Z,100366.06
2022-10-04T10:49:36.359Z,100361.28
2022-10-04T10:52:28.528Z,100363.28
2022-10-04T10:55:29.267Z,100353.62
2022-10-04T10:58:27.664Z,100363.31
2022-10-04T11:01:26.465Z,100358.28
2022-10-04T11:04:18.679Z,100362.22
2022-10-04T11:07:16.436Z,100361.00
2022-10-04T11:09:51.454Z,100354.81
2022-10-04T11:12:29.617Z,100353.72
2022-10-04T11:15:34.949Z,100359.03
2022-10-04T11:18:21.513Z,100359.37
2022-10-04T11:21:25.796Z,100354.56
2022-10-04T11:24:50.832Z,100357.25
2022-10-04T11:27:28.898Z,100349.06
2022-10-04T11:30:09.032Z,100360.41
2022-10-04T11:32:48.359Z,100356.22
2022-10-04T11:35:15.817Z,100361.12
2022-10-04T11:37:46.410Z,100348.94
2022-10-04T11:40:17.964Z,100348.81
2022-10-04T11:42:56.311Z,100356.72
2022-10-04T11:46:14.142Z,100354.97
2022-10-04T11:48:53.328Z,100354.59
2022-10-04T11:51:35.519Z,100355.50
2022-10-04T11:54:37.578Z,100362.31
2022-10-04T11:57:25.614Z,100358.78
2022-10-04T12:00:05.111Z,100366.03
2022-10-04T12:03:02.733Z,100358.59
2022-10-04T12:05:40.775Z,100366.75
2022-10-04T12:08:16.811Z,100374.97
2022-10-04T12:11:08.662Z,100372.13
2022-10-04T12:13:54.451Z,100364.69
2022-10-04T12:16:34.184Z,100363.34
2022-10-04T12:19:31.779Z,100367.31
2022-10-04T12:22:14.733Z,100372.78
2022-10-04T12:25:09.291Z,100385.87
2022-10-04T12:28:35.403Z,100378.09
2022-10-04T12:31:28.677Z,100386.75
2022-10-04T12:34:17.554Z,100377.22
2022-10-04T12:37:13.848Z,100381.38
2022-10-04T12:40:00.153Z,100377.94
2022-10-04T12:42:32.248Z,100371.25
2022-10-04T12:45:21.964Z,100374.22
2022-10-04T12:47:55.339Z,100376.72
2022-10-04T12:50:34.879Z,100389.09
2022-10-04T12:53:41.277Z,100384.75
2022-10-04T12:56:32.044Z,100384.75
2022-10-04T12:59:16.353Z,100382.63
2022-10-04T13:02:15.029Z,100373.84
2022-10-04T13:04:48.834Z,100377.78
2022-10-04T13:08:04.699Z,100372.69
2022-10-04T13:10:54.470Z,100372.91
2022-10-04T13:13:31.367Z,100369.34
2022-10-04T13:19:12.521Z,100371.09
2022-10-04T13:21:57.059Z,100371.09
2022-10-04T13:24:55.547Z,100363.44
2022-10-04T13:27:30.416Z,100359.25
2022-10-04T13:30:16.237Z,100364.97
2022-10-04T13:33:10.334Z,100375.22
2022-10-04T13:35:49.959Z,100373.09
2022-10-04T13:38:31.115Z,100361.38
2022-10-04T13:41:31.076Z,100362.47
2022-10-04T13:44:35.463Z,100377.09
2022-10-04T13:47:05.755Z,100379.53
2022-10-04T13:49:57.464Z,100375.50
2022-10-04T13:53:06.306Z,100376.25
2022-10-04T13:56:13.339Z,100371.31
2022-10-04T13:58:48.386Z,100377.62
2022-10-04T14:01:18.915Z,100377.41
2022-10-04T14:04:12.554Z,100382.28
2022-10-04T14:07:01.361Z,100395.72
2022-10-04T14:09:59.883Z,100404.31
2022-10-04T14:12:36.099Z,100399.87
2022-10-04T14:15:11.258Z,100385.00
2022-10-04T14:18:00.060Z,100391.03
2022-10-04T14:20:33.536Z,100395.16
2022-10-04T14:23:12.682Z,100393.72
2022-10-04T14:25:55.448Z,100398.06
2022-10-04T14:28:38.253Z,100400.06
2022-10-04T14:31:27.739Z,100388.50
2022-10-04T14:34:25.687Z,100390.31
2022-10-04T14:37:25.459Z,100385.53
2022-10-04T14:40:17.634Z,100392.94
2022-10-04T14:43:30.883Z,100385.00
2022-10-04T14:46:25.420Z,100393.22
2022-10-04T14:48:59.027Z,100401.69
2022-10-04T14:51:35.440Z,100397.91
2022-10-04T14:54:15.948Z,100402.50
2022-10-04T14:56:52.304Z,100410.19
2022-10-04T14:59:46.558Z,100406.37
2022-10-04T15:02:33.771Z,100409.94
2022-10-04T15:05:13.968Z,100412.12
2022-10-04T15:07:47.025Z,100409.38
2022-10-04T15:10:25.212Z,100416.81
2022-10-04T15:13:11.487Z,100418.41
2022-10-04T15:16:14.129Z,100412.00
2022-10-04T15:18:41.600Z,100426.81
2022-10-04T15:21:47.655Z,100418.97
2022-10-04T15:24:25.634Z,100424.97
2022-10-04T15:27:30.603Z,100426.87
2022-10-04T15:30:17.932Z,100429.94
2022-10-04T15:32:48.262Z,100423.44
2022-10-04T15:35:15.467Z,100436.97
2022-10-04T15:37:53.278Z,100434.75
2022-10-04T15:40:32.918Z,100435.69
2022-10-04T15:43:15.385Z,100442.81
2022-10-04T15:46:02.219Z,100442.03
2022-10-04T15:48:52.488Z,100453.25
2022-10-04T15:51:48.752Z,100453.00
2022-10-04T15:54:22.171Z,100460.09
2022-10-04T15:56:55.793Z,100464.78
2022-10-04T15:59:41.926Z,100467.78
2022-10-04T16:02:28.675Z,100466.59
2022-10-04T16:05:00.404Z,100468.28
2022-10-04T16:07:35.708Z,100475.03
2022-10-04T16:10:19.074Z,100481.69
2022-10-04T16:13:06.991Z,100472.38
2022-10-04T16:15:39.823Z,100478.06
2022-10-04T16:18:26.551Z,100475.34
2022-10-04T16:21:19.104Z,100485.22
2022-10-04T16:23:46.527Z,100484.03
2022-10-04T16:26:34.038Z,100479.41
2022-10-04T16:29:04.704Z,100481.66
2022-10-04T16:31:44.567Z,100484.19
2022-10-04T16:34:17.451Z,100490.00
2022-10-04T16:36:52.613Z,100491.28
2022-10-04T16:39:59.241Z,100488.78
2022-10-04T16:42:41.854Z,100489.66
2022-10-04T16:45:09.327Z,100493.63
2022-10-04T16:47:59.689Z,100492.34
2022-10-04T16:50:48.853Z,100505.66
2022-10-04T16:53:48.558Z,100505.84
2022-10-04T16:56:23.706Z,100507.81
2022-10-04T16:59:01.558Z,100513.16
2022-10-04T17:01:41.617Z,100515.00
2022-10-04T17:04:30.949Z,100523.03
2022-10-04T17:07:08.640Z,100518.63
2022-10-04T17:10:04.376Z,100523.28
2022-10-04T17:12:50.563Z,100526.84
2022-10-04T17:15:31.025Z,100530.59
2022-10-04T17:18:19.643Z,100534.16
2022-10-04T17:20:56.810Z,100534.06
2022-10-04T17:23:54.479Z,100543.09
2022-10-04T17:26:41.866Z,100538.91
2022-10-04T17:29:21.818Z,100540.00
2022-10-04T17:31:57.367Z,100545.06
2022-10-04T17:34:43.516Z,100548.50
2022-10-04T17:37:23.386Z,100557.62
2022-10-04T17:40:37.899Z,100557.81
2022-10-04T17:43:22.759Z,100557.38
2022-10-04T17:46:11.762Z,100555.31
2022-10-04T17:49:05.332Z,100552.44
2022-10-04T17:52:07.643Z,100560.53
2022-10-04T17:54:57.159Z,100570.41
2022-10-04T17:57:25.320Z,100570.03
2022-10-04T17:59:59.594Z,100570.03
2022-10-04T18:02:37.933Z,100570.94
2022-10-04T18:05:18.005Z,100569.44
2022-10-04T18:07:52.491Z,100570.13
2022-10-04T18:10:38.923Z,100574.91
2022-10-04T18:13:14.792Z,100575.31
2022-10-04T18:15:50.032Z,100576.47
2022-10-04T18:18:21.769Z,100582.94
2022-10-04T18:20:52.320Z,100580.13
2022-10-04T18:23:28.293Z,100580.13
2022-10-04T18:26:12.056Z,100587.91
2022-10-04T18:28:39.531Z,100592.87
2022-10-04T18:31:21.215Z,100595.38
2022-10-04T18:33:51.173Z,100590.47
2022-10-04T18:36:27.490Z,100589.47
2022-10-04T18:39:13.784Z,100589.34
2022-10-04T18:41:51.734Z,100598.56
2022-10-04T18:44:29.806Z,100593.75
2022-10-04T18:46:59.888Z,100601.28
2022-10-04T18:49:33.386Z,100612.25
2022-10-04T18:52:25.192Z,100606.97
2022-10-04T18:55:34.300Z,100614.03
2022-10-04T18:58:54.470Z,100613.75
2022-10-04T19:02:07.515Z,100621.72
2022-10-04T19:04:41.344Z,100623.97
2022-10-04T19:07:37.192Z,100624.06
2022-10-04T19:10:57.326Z,100622.41
2022-10-04T19:13:44.009Z,100627.72
2022-10-04T19:16:16.638Z,100632.72
2022-10-04T19:18:49.952Z,100628.41
2022-10-04T19:21:48.041Z,100636.03
2022-10-04T19:24:49.352Z,100632.00
2022-10-04T19:27:38.694Z,100642.28
2022-10-04T19:30:40.533Z,100647.50
2022-10-04T19:33:30.815Z,100642.09
2022-10-04T19:36:01.477Z,100638.06
2022-10-04T19:38:31.384Z,100642.72
2022-10-04T19:41:23.783Z,100654.41
2022-10-04T19:43:59.677Z,100653.69
2022-10-04T19:46:40.243Z,100663.75
2022-10-04T19:49:18.446Z,100665.75
2022-10-04T19:51:51.121Z,100668.81
2022-10-04T19:54:32.025Z,100669.06
2022-10-04T19:57:01.952Z,100662.28
2022-10-04T19:59:42.999Z,100671.37
2022-10-04T20:02:11.640Z,100679.31
2022-10-04T20:04:42.233Z,100668.97
2022-10-04T20:07:25.768Z,100672.50
2022-10-04T20:10:12.658Z,100687.78
2022-10-04T20:12:41.469Z,100685.78
2022-10-04T20:15:25.235Z,100684.97
2022-10-04T20:17:55.447Z,100688.00
2022-10-04T20:20:38.726Z,100682.13
2022-10-04T20:23:10.002Z,100678.19
2022-10-04T20:25:43.801Z,100685.81
2022-10-04T20:28:26.284Z,100683.12
2022-10-04T20:30:58.592Z,100683.94
2022-10-04T20:33:36.847Z,100694.25
2022-10-04T20:36:19.935Z,100698.19
2022-10-04T20:38:59.681Z,100690.87
2022-10-04T20:41:50.247Z,100701.56
2022-10-04T20:44:55.439Z,100707.50
2022-10-04T20:47:41.760Z,100705.16
2022-10-04T20:50:36.688Z,100704.87
2022-10-04T20:53:12.300Z,100704.53
2022-10-04T20:55:40.342Z,100707.34
2022-10-04T20:58:30.356Z,100711.97
2022-10-04T21:00:59.986Z,100712.16
2022-10-04T21:03:27.702Z,100710.88
2022-10-04T21:06:03.941Z,100705.72
2022-10-04T21:08:31.582Z,100703.00
2022-10-04T21:11:22.091Z,100712.75
2022-10-04T21:13:58.209Z,100719.19
2022-10-04T21:16:42.076Z,100710.84
2022-10-04T21:19:35.817Z,100719.56
2022-10-04T21:22:04.597Z,100724.47
2022-10-04T21:24:48.852Z,100722.91
2022-10-04T21:27:30.691Z,100720.06
2022-10-04T21:29:59.342Z,100728.00
2022-10-04T21:32:27.453Z,100731.59
2022-10-04T21:34:54.999Z,100732.50
2022-10-04T21:37:22.808Z,100730.47
2022-10-04T21:39:50.097Z,100741.47
2022-10-04T21:42:17.952Z,100738.53
2022-10-04T21:44:45.517Z,100738.59
2022-10-04T21:47:12.846Z,100749.78
2022-10-04T21:49:40.202Z,100744.72
2022-10-04T21:52:08.089Z,100745.16
2022-10-04T21:54:35.530Z,100744.34
2022-10-04T21:57:02.836Z,100744.88
2022-10-04T21:59:30.408Z,100743.31
2022-10-04T22:01:57.739Z,100745.16
2022-10-04T22:04:25.405Z,100754.81
2022-10-04T22:06:52.724Z,100753.13
2022-10-04T22:09:20.125Z,100755.13
2022-10-04T22:11:47.705Z,100754.22
2022-10-04T22:14:14.992Z,100749.47
2022-10-04T22:16:43.471Z,100750.59
2022-10-04T22:19:11.465Z,100752.56
2022-10-04T22:21:38.806Z,100752.97
2022-10-04T22:24:13.751Z,100756.97
2022-10-04T22:26:41.292Z,100762.44
2022-10-04T22:29:13.246Z,100752.84
2022-10-04T22:31:44.204Z,100759.72
2022-10-04T22:34:17.230Z,100768.78
2022-10-04T22:36:46.015Z,100769.31
2022-10-04T22:39:18.089Z,100761.22
2022-10-04T22:41:48.384Z,100759.59
2022-10-04T22:44:21.200Z,100776.94
2022-10-04T22:46:52.134Z,100774.38
2022-10-04T22:49:27.407Z,100775.69
2022-10-04T22:51:56.514Z,100766.19
2022-10-04T22:54:31.234Z,100769.84
2022-10-04T22:56:59.166Z,100774.62
2022-10-04T22:59:35.895Z,100771.34
2022-10-04T23:02:07.654Z,100773.91
2022-10-04T23:04:35.029Z,100771.81
2022-10-04T23:07:02.657Z,100777.22
2022-10-04T23:09:29.977Z,100779.50
2022-10-04T23:11:57.399Z,100783.72
2022-10-04T23:14:24.981Z,100771.81
2022-10-04T23:16:52.295Z,100780.53
2022-10-04T23:19:20.310Z,100779.47
2022-10-04T23:21:49.521Z,100783.22
2022-10-04T23:24:19.439Z,100785.81
2022-10-04T23:26:49.419Z,100783.06
2022-10-04T23:29:22.001Z,100789.06
2022-10-04T23:31:50.171Z,100793.25
2022-10-04T23:34:28.084Z,100794.34
2022-10-04T23:36:55.442Z,100797.03
2022-10-04T23:39:27.249Z,100798.63
2022-10-04T23:41:55.370Z,100798.31
2022-10-04T23:44:24.681Z,100803.47
2022-10-04T23:46:52.391Z,100798.84
2022-10-04T23:49:21.310Z,100803.78
2022-10-04T23:51:51.162Z,100809.63
2022-10-04T23:54:18.667Z,100810.88
2022-10-04T23:56:47.031Z,100811.31
2022-10-04T23:59:17.489Z,100809.28
